Archival Weather

Norman Y Mineta San Jose Intl

San Jose, California (KSJC)

Report from: Wednesday, February 28, 2024 6:53 AM PST
Current time: Friday, June 14, 2024 4:46 AM PDT

Current weather – Weather history – Daily summaries
Weather forecast

Temperature7.2°C (45.0°F)
Wind chill6.4°C (43.5°F)
Dew point1.7°C (35.1°F)
Winds 3 kts (1.5 m/s, 3.5 mph) South-Southeast (150°)
Visibility10 mi. (16.1 km)
Clouds Sky clear
Altimeter30.08 in.Hg (1019 mB)
Relative humidity68 %
Density altitude-1,009 ft. (-308 m)
Sea-level pressure101.8 kPa (1018 mB, 30.07 in.Hg)
Remarks Automated weather observing station with precipitation discriminator
Pressure rising more slowly
Flight conditions Visual Meteorological Conditions
Raw dataKSJC 281453Z 15003KT 10SM CLR 07/02 A3008 RMK AO2 SLP184 T00720017 51002
An error has occurred. This application may no longer respond until reloaded. Reload 🗙